Wright Patterson AFB, Ohio
Current Conditions -  °F | °C
As of 2:58 AM on Saturday 20 Dec 2014 (Local Time) from KFFO Reporting Station
Overcast Overcast  
Wind Chill: 29°   Ceiling: 1600
Heat Index: 29°   Visibility: 10mi
Dew Point: 22°   Wind: 0mph
Humidity: 74%   Direction: NA
Pressure: 30.28"   Gusts: NA
Location:  39.7649°N, 84.0863°W
Report Text: KFFO 200758Z AUTO 00000KT 10SM OVC016 M01/M05 A3028 RMK AO2 SLP266 T10151055
Loading
Personal Weather Stations






























Interactive Weather Map New forecast layout! Learn more

10-Day Weather Forecast

Advertisements
Track Severe Weather on mobile